Terminal Aerodrome Forecast
Issued by NWS Newport/Morehead City, NC

Home | Current Version | Previous Version | Text Only | Print | Product List | Glossary On
Versions: 1 2 3 4 5 6 7 8 9 10 11 12 13 14 15 16 17 18 19 20 21 22
788
FTUS42 KMHX 210347 AAA
TAFEWN
TAF AMD
KEWN 210347Z 2104/2124 VRB03KT 5SM BR BKN007
     FM210600 00000KT 1SM BR OVC003
     FM211300 VRB03KT 3SM BR BKN003
     FM211700 VRB04KT P6SM SCT005 BKN015=

USA.gov is the U.S. government's official web portal to all federal, state and local government web resources and services.